Time;durP1;ratioP1;P1;durP2;ratioP2;P2;SDS_P1;SDS_P2;PMS_P1;PMS_P2;Temp;Humidity;BMP_temperature;BMP_pressure;BME280_temperature;BME280_humidity;BME280_pressure;Samples;Min_cycle;Max_cycle;Signal;HPM_P1;HPM_P2
2022/09/15 00:00:59;;;;;;;5.77;1.63;;;;;;;;;;5072213;28;20975;-64
2022/09/15 00:03:30;;;;;;;3.40;1.20;;;;;;;;;;5072507;28;20438;-64
2022/09/15 00:05:57;;;;;;;3.73;1.63;;;;;;;;;;5071760;28;20482;-64
2022/09/15 00:08:25;;;;;;;3.60;1.30;;;;;;;;;;5072164;28;20471;-64
2022/09/15 00:10:56;;;;;;;3.00;1.70;;;;;;;;;;5072030;28;20437;-64
2022/09/15 00:13:24;;;;;;;4.10;1.70;;;;;;;;;;5072221;28;20988;-64
2022/09/15 00:15:51;;;;;;;3.37;1.63;;;;;;;;;;5071796;28;20944;-64
2022/09/15 00:18:20;;;;;;;3.90;1.73;;;;;;;;;;5072048;28;20973;-64
2022/09/15 00:20:48;;;;;;;4.00;1.73;;;;;;;;;;5071727;28;20460;-64
2022/09/15 00:23:16;;;;;;;4.90;2.10;;;;;;;;;;5072234;28;20443;-64
2022/09/15 00:25:44;;;;;;;2.70;1.50;;;;;;;;;;5071965;28;20490;-65
2022/09/15 00:28:15;;;;;;;5.60;2.20;;;;;;;;;;5072498;28;20433;-65
2022/09/15 00:30:43;;;;;;;4.13;2.30;;;;;;;;;;5063581;28;20487;-69
2022/09/15 00:33:10;;;;;;;2.97;1.20;;;;;;;;;;5070367;28;20447;-64
2022/09/15 00:35:40;;;;;;;3.43;1.73;;;;;;;;;;5071273;28;20588;-64
2022/09/15 00:38:08;;;;;;;4.93;2.47;;;;;;;;;;5071804;28;20445;-64
2022/09/15 00:40:43;;;;;;;3.37;2.30;;;;;;;;;;5072170;28;20443;-64
2022/09/15 00:43:16;;;;;;;3.20;1.57;;;;;;;;;;5071814;28;20453;-64
2022/09/15 00:45:44;;;;;;;2.77;1.53;;;;;;;;;;5072181;28;20485;-64
2022/09/15 00:48:13;;;;;;;3.30;1.73;;;;;;;;;;5071718;28;20961;-64
2022/09/15 00:50:45;;;;;;;3.43;1.80;;;;;;;;;;5051995;28;20440;-64
2022/09/15 00:53:13;;;;;;;3.00;1.87;;;;;;;;;;5051940;28;20472;-64
2022/09/15 00:55:43;;;;;;;3.93;2.30;;;;;;;;;;5071460;28;20441;-64
2022/09/15 00:58:21;;;;;;;3.27;1.70;;;;;;;;;;5071887;28;20484;-64
2022/09/15 01:00:55;;;;;;;6.50;2.00;;;;;;;;;;5052120;28;20444;-64
2022/09/15 01:03:22;;;;;;;4.27;1.30;;;;;;;;;;5052399;28;20527;-65
2022/09/15 01:05:54;;;;;;;2.30;1.53;;;;;;;;;;5075386;28;20834;-65
2022/09/15 01:08:25;;;;;;;3.93;1.60;;;;;;;;;;5075750;28;20984;-64
2022/09/15 01:10:53;;;;;;;4.20;2.80;;;;;;;;;;5075716;28;20440;-64
2022/09/15 01:13:20;;;;;;;4.57;1.83;;;;;;;;;;5075923;28;20504;-64
2022/09/15 01:15:53;;;;;;;2.53;1.30;;;;;;;;;;5075440;28;20441;-64
2022/09/15 01:18:23;;;;;;;5.83;2.20;;;;;;;;;;5075627;28;20446;-65
2022/09/15 01:21:05;;;;;;;5.83;2.00;;;;;;;;;;5073944;28;20788;-65
2022/09/15 01:23:50;;;;;;;2.20;1.10;;;;;;;;;;5075614;28;20438;-64
2022/09/15 01:26:27;;;;;;;2.20;1.50;;;;;;;;;;5055805;28;20562;-64
2022/09/15 01:29:07;;;;;;;3.53;1.73;;;;;;;;;;5055974;28;20520;-64
2022/09/15 01:33:02;;;;;;;3.70;1.60;;;;;;;;;;5075738;28;20839;-64
2022/09/15 01:34:26;;;;;;;3.63;1.97;;;;;;;;;;5074857;28;20932;-64
2022/09/15 01:37:02;;;;;;;3.80;1.60;;;;;;;;;;5075040;28;20475;-64
2022/09/15 01:39:33;;;;;;;3.30;1.70;;;;;;;;;;5074945;28;20435;-64
2022/09/15 01:42:02;;;;;;;4.57;1.60;;;;;;;;;;5075218;28;20445;-65
2022/09/15 01:44:35;;;;;;;6.13;2.10;;;;;;;;;;5074722;28;20454;-65
2022/09/15 01:47:06;;;;;;;2.97;1.70;;;;;;;;;;5074913;28;20795;-65
2022/09/15 01:49:37;;;;;;;3.50;1.60;;;;;;;;;;5074671;28;20446;-64
2022/09/15 01:52:05;;;;;;;3.33;1.50;;;;;;;;;;5075170;28;20445;-64
2022/09/15 01:54:34;;;;;;;3.10;1.70;;;;;;;;;;5074583;28;20799;-64
2022/09/15 01:57:02;;;;;;;5.50;1.90;;;;;;;;;;5074894;28;20447;-64
2022/09/15 01:59:29;;;;;;;3.00;1.57;;;;;;;;;;5074161;28;20473;-65
2022/09/15 02:02:00;;;;;;;4.60;1.47;;;;;;;;;;5074833;28;20442;-64
2022/09/15 02:04:31;;;;;;;2.50;1.40;;;;;;;;;;5074353;28;20445;-64
2022/09/15 02:07:01;;;;;;;4.30;1.67;;;;;;;;;;5074906;28;20515;-64
2022/09/15 02:09:31;;;;;;;2.90;1.83;;;;;;;;;;5074311;28;20438;-66
2022/09/15 02:12:01;;;;;;;3.77;1.53;;;;;;;;;;5074969;28;20438;-64
2022/09/15 02:14:35;;;;;;;2.70;1.50;;;;;;;;;;5074413;28;20438;-64
2022/09/15 02:17:04;;;;;;;3.03;1.67;;;;;;;;;;5054005;28;20849;-64
2022/09/15 02:19:35;;;;;;;4.00;1.30;;;;;;;;;;5054486;28;20442;-65
2022/09/15 02:22:08;;;;;;;2.80;1.77;;;;;;;;;;5054534;28;20902;-64
2022/09/15 02:24:38;;;;;;;3.90;1.67;;;;;;;;;;5054199;28;20500;-65
2022/09/15 02:27:08;;;;;;;2.90;1.93;;;;;;;;;;5054318;28;20442;-64
2022/09/15 02:29:38;;;;;;;3.10;1.57;;;;;;;;;;5054291;28;20439;-65
2022/09/15 02:32:07;;;;;;;3.23;1.50;;;;;;;;;;5054088;28;20454;-64
2022/09/15 02:34:38;;;;;;;2.50;1.37;;;;;;;;;;5054230;28;20440;-64
2022/09/15 02:37:06;;;;;;;2.27;1.10;;;;;;;;;;5073956;28;20864;-64
2022/09/15 02:39:35;;;;;;;5.40;1.77;;;;;;;;;;5073971;28;20446;-64
2022/09/15 02:42:03;;;;;;;2.70;1.60;;;;;;;;;;5072982;28;20500;-64
2022/09/15 02:44:30;;;;;;;2.47;1.40;;;;;;;;;;5074144;28;20896;-64
2022/09/15 02:46:59;;;;;;;3.30;1.40;;;;;;;;;;5065207;28;20485;-64
2022/09/15 02:49:27;;;;;;;2.30;1.20;;;;;;;;;;5073709;28;20447;-64
2022/09/15 02:51:56;;;;;;;3.80;1.50;;;;;;;;;;5073158;28;20451;-64
2022/09/15 02:54:23;;;;;;;3.50;1.40;;;;;;;;;;5073890;28;20463;-64
2022/09/15 02:56:51;;;;;;;3.13;1.40;;;;;;;;;;5073425;28;20465;-64
2022/09/15 02:59:18;;;;;;;2.73;1.70;;;;;;;;;;5073723;28;20532;-64
2022/09/15 03:01:46;;;;;;;3.30;1.30;;;;;;;;;;5073066;28;20473;-64
2022/09/15 03:04:18;;;;;;;3.03;1.90;;;;;;;;;;5073575;28;20481;-64
2022/09/15 03:06:46;;;;;;;2.37;1.40;;;;;;;;;;5073405;28;20811;-64
2022/09/15 03:09:20;;;;;;;4.30;1.73;;;;;;;;;;5074091;28;20531;-64
2022/09/15 03:11:48;;;;;;;4.10;1.60;;;;;;;;;;5073050;28;20441;-64
2022/09/15 03:14:18;;;;;;;2.90;1.57;;;;;;;;;;5073536;28;20444;-64
2022/09/15 03:16:46;;;;;;;2.70;1.00;;;;;;;;;;5072237;28;20494;-64
2022/09/15 03:19:18;;;;;;;2.47;1.53;;;;;;;;;;5073436;28;20442;-64
2022/09/15 03:21:46;;;;;;;2.50;1.43;;;;;;;;;;5070888;28;20462;-64
2022/09/15 03:24:14;;;;;;;2.87;1.13;;;;;;;;;;5073285;28;20438;-64
2022/09/15 03:26:43;;;;;;;2.37;1.30;;;;;;;;;;5071189;28;20513;-64
2022/09/15 03:29:10;;;;;;;2.77;1.67;;;;;;;;;;5072595;28;20433;-65
2022/09/15 03:31:38;;;;;;;2.13;0.93;;;;;;;;;;5072762;28;20450;-64
2022/09/15 03:34:05;;;;;;;2.10;0.97;;;;;;;;;;5073187;28;20448;-64
2022/09/15 03:36:33;;;;;;;6.70;1.43;;;;;;;;;;5072110;28;20466;-64
2022/09/15 03:39:00;;;;;;;2.70;0.90;;;;;;;;;;5072783;28;20433;-64
2022/09/15 03:41:31;;;;;;;3.30;1.83;;;;;;;;;;5072711;28;20441;-64
2022/09/15 03:44:00;;;;;;;3.30;1.33;;;;;;;;;;5073327;28;20438;-64
2022/09/15 03:46:28;;;;;;;2.83;1.10;;;;;;;;;;5072541;28;20881;-64
2022/09/15 03:48:55;;;;;;;5.93;1.13;;;;;;;;;;5072873;28;20488;-64
2022/09/15 03:51:23;;;;;;;3.20;1.17;;;;;;;;;;5072314;28;20435;-65
2022/09/15 03:53:50;;;;;;;2.60;1.20;;;;;;;;;;5072557;28;20671;-65
2022/09/15 03:56:20;;;;;;;2.80;0.93;;;;;;;;;;5072642;28;20442;-64
2022/09/15 03:58:48;;;;;;;2.17;1.10;;;;;;;;;;5072754;28;20439;-65
2022/09/15 04:01:18;;;;;;;2.00;0.80;;;;;;;;;;5071906;28;20524;-65
2022/09/15 04:03:51;;;;;;;2.10;1.30;;;;;;;;;;5073093;28;20437;-64
2022/09/15 04:06:18;;;;;;;2.10;1.07;;;;;;;;;;5070207;28;21285;-65
2022/09/15 04:08:46;;;;;;;2.20;1.13;;;;;;;;;;5072725;28;20450;-64
2022/09/15 04:11:14;;;;;;;3.67;0.97;;;;;;;;;;5072419;28;20446;-64
2022/09/15 04:13:42;;;;;;;1.97;1.00;;;;;;;;;;5072791;28;20449;-64
2022/09/15 04:16:12;;;;;;;2.67;1.20;;;;;;;;;;5072499;28;20444;-65
2022/09/15 04:18:41;;;;;;;2.63;1.13;;;;;;;;;;5058449;28;20434;-65
2022/09/15 04:21:10;;;;;;;1.70;0.80;;;;;;;;;;5072560;28;20450;-64
2022/09/15 04:23:37;;;;;;;2.00;0.70;;;;;;;;;;5072003;28;20520;-64
2022/09/15 04:26:07;;;;;;;1.90;0.87;;;;;;;;;;5072676;28;20508;-65
2022/09/15 04:28:35;;;;;;;3.23;1.00;;;;;;;;;;5072355;28;20435;-64
2022/09/15 04:31:04;;;;;;;3.40;1.57;;;;;;;;;;5072291;28;20790;-64
2022/09/15 04:33:32;;;;;;;2.43;1.23;;;;;;;;;;5072679;28;20524;-64
2022/09/15 04:36:02;;;;;;;2.33;1.20;;;;;;;;;;5071890;28;20473;-64
2022/09/15 04:38:30;;;;;;;1.93;1.03;;;;;;;;;;5071456;28;20444;-64
2022/09/15 04:40:58;;;;;;;2.20;0.90;;;;;;;;;;5070737;28;20889;-64
2022/09/15 04:43:25;;;;;;;2.83;1.30;;;;;;;;;;5072085;28;20431;-64
2022/09/15 04:45:53;;;;;;;2.60;1.20;;;;;;;;;;5071832;28;20477;-64
2022/09/15 04:48:21;;;;;;;3.07;1.40;;;;;;;;;;5072332;28;20452;-64
2022/09/15 04:50:48;;;;;;;2.93;1.27;;;;;;;;;;5072314;28;20434;-65
2022/09/15 04:53:17;;;;;;;2.30;1.10;;;;;;;;;;5072608;28;20442;-65
2022/09/15 04:55:45;;;;;;;2.70;1.20;;;;;;;;;;5071740;28;20446;-64
2022/09/15 04:58:12;;;;;;;2.57;1.27;;;;;;;;;;5066051;28;20958;-65
2022/09/15 05:00:41;;;;;;;2.50;1.23;;;;;;;;;;5063031;28;20447;-64
2022/09/15 05:03:09;;;;;;;2.20;1.10;;;;;;;;;;5065240;28;20810;-64
2022/09/15 05:05:38;;;;;;;2.43;1.10;;;;;;;;;;5063563;28;21035;-64
2022/09/15 05:08:06;;;;;;;3.33;1.20;;;;;;;;;;5066310;28;20436;-65
2022/09/15 05:10:37;;;;;;;2.50;1.50;;;;;;;;;;5067599;28;20438;-64
2022/09/15 05:13:04;;;;;;;1.90;1.03;;;;;;;;;;5068608;28;20436;-64
2022/09/15 05:15:32;;;;;;;3.40;1.20;;;;;;;;;;5069179;28;20440;-65
2022/09/15 05:18:00;;;;;;;1.93;1.10;;;;;;;;;;5067006;28;20478;-65
2022/09/15 05:20:28;;;;;;;2.67;1.00;;;;;;;;;;5069480;28;21814;-64
2022/09/15 05:22:56;;;;;;;2.77;1.10;;;;;;;;;;5068903;28;20437;-64
2022/09/15 05:25:23;;;;;;;1.90;0.80;;;;;;;;;;5069180;28;20472;-65
2022/09/15 05:27:52;;;;;;;3.53;1.03;;;;;;;;;;5069197;28;20454;-65
2022/09/15 05:30:20;;;;;;;2.40;1.17;;;;;;;;;;5069791;28;20443;-64
2022/09/15 05:32:47;;;;;;;2.87;1.00;;;;;;;;;;5067505;28;20526;-66
2022/09/15 05:35:15;;;;;;;2.63;1.20;;;;;;;;;;5067017;28;20490;-64
2022/09/15 05:37:43;;;;;;;2.50;1.00;;;;;;;;;;5068557;28;21279;-65
2022/09/15 05:40:11;;;;;;;4.17;1.23;;;;;;;;;;5069365;28;20436;-65
2022/09/15 05:42:39;;;;;;;2.10;1.00;;;;;;;;;;5067820;28;20953;-64
2022/09/15 05:45:08;;;;;;;3.57;1.53;;;;;;;;;;5069301;28;20945;-64
2022/09/15 05:47:36;;;;;;;2.23;1.00;;;;;;;;;;5068073;28;20471;-64
2022/09/15 05:50:03;;;;;;;3.10;1.03;;;;;;;;;;5068589;28;20494;-65
2022/09/15 05:52:31;;;;;;;4.27;1.20;;;;;;;;;;5067464;28;20476;-64
2022/09/15 05:54:58;;;;;;;2.10;1.20;;;;;;;;;;5071559;28;20441;-65
2022/09/15 05:57:26;;;;;;;2.00;1.07;;;;;;;;;;5068726;28;20522;-65
2022/09/15 05:59:53;;;;;;;2.50;0.90;;;;;;;;;;5071458;28;20433;-65
2022/09/15 06:02:23;;;;;;;1.90;0.90;;;;;;;;;;5065640;28;20487;-67
2022/09/15 06:04:51;;;;;;;3.00;1.30;;;;;;;;;;5072727;28;20441;-64
2022/09/15 06:07:32;;;;;;;2.03;1.10;;;;;;;;;;5069702;28;20919;-66
2022/09/15 06:10:02;;;;;;;3.13;1.50;;;;;;;;;;5060134;28;20436;-67
2022/09/15 06:12:49;;;;;;;3.90;1.20;;;;;;;;;;5051784;28;20910;-63
2022/09/15 06:15:19;;;;;;;2.13;1.60;;;;;;;;;;5065394;28;20494;-63
2022/09/15 06:17:51;;;;;;;1.90;0.97;;;;;;;;;;5070230;28;20918;-63
2022/09/15 06:20:18;;;;;;;2.80;1.17;;;;;;;;;;5070399;28;20838;-64
2022/09/15 06:22:50;;;;;;;2.80;1.40;;;;;;;;;;5070345;28;20478;-64
2022/09/15 06:25:18;;;;;;;3.70;1.00;;;;;;;;;;5069579;28;20486;-63
2022/09/15 06:27:45;;;;;;;2.57;1.60;;;;;;;;;;5070123;28;20889;-67
2022/09/15 06:30:13;;;;;;;4.40;1.20;;;;;;;;;;5070837;28;20466;-63
2022/09/15 06:32:41;;;;;;;2.40;1.10;;;;;;;;;;5073352;28;20448;-63
2022/09/15 06:35:10;;;;;;;2.80;0.97;;;;;;;;;;5074454;28;20446;-63
2022/09/15 06:37:37;;;;;;;2.17;1.07;;;;;;;;;;5073928;28;20472;-63
2022/09/15 06:40:06;;;;;;;5.90;1.00;;;;;;;;;;5075126;28;20472;-63
2022/09/15 06:42:33;;;;;;;2.10;1.00;;;;;;;;;;5074959;28;20448;-63
2022/09/15 06:45:00;;;;;;;1.83;1.07;;;;;;;;;;5074963;28;20473;-63
2022/09/15 06:47:32;;;;;;;2.10;1.00;;;;;;;;;;5074766;28;20508;-63
2022/09/15 06:49:59;;;;;;;1.80;0.83;;;;;;;;;;5075011;28;20532;-63
2022/09/15 06:52:28;;;;;;;3.50;2.20;;;;;;;;;;5075011;28;20832;-64
2022/09/15 06:54:55;;;;;;;2.30;1.30;;;;;;;;;;5074809;28;20516;-63
2022/09/15 06:57:22;;;;;;;2.50;1.00;;;;;;;;;;5074868;28;20940;-63
2022/09/15 06:59:50;;;;;;;2.90;1.20;;;;;;;;;;5074513;28;20493;-64
2022/09/15 07:02:17;;;;;;;5.40;1.47;;;;;;;;;;5074330;28;20527;-65
2022/09/15 07:04:44;;;;;;;2.90;0.90;;;;;;;;;;5074928;28;20478;-63
2022/09/15 07:07:11;;;;;;;2.10;1.10;;;;;;;;;;5074648;28;20522;-63
2022/09/15 07:09:40;;;;;;;3.90;1.27;;;;;;;;;;5074527;28;20947;-63
2022/09/15 07:12:07;;;;;;;4.33;1.20;;;;;;;;;;5074518;28;20829;-63
2022/09/15 07:14:35;;;;;;;4.10;1.47;;;;;;;;;;5074410;28;20442;-63
2022/09/15 07:17:02;;;;;;;2.20;1.30;;;;;;;;;;5074433;28;20466;-64
2022/09/15 07:19:29;;;;;;;3.40;1.47;;;;;;;;;;5074462;28;20845;-63
2022/09/15 07:21:57;;;;;;;3.20;1.00;;;;;;;;;;5074318;28;20531;-64
2022/09/15 07:24:24;;;;;;;1.90;1.20;;;;;;;;;;5074253;28;21017;-63
2022/09/15 07:26:52;;;;;;;4.50;1.90;;;;;;;;;;5074165;28;20519;-63
2022/09/15 07:29:20;;;;;;;3.27;1.00;;;;;;;;;;5074090;28;20491;-64
2022/09/15 07:31:47;;;;;;;2.80;1.00;;;;;;;;;;5074349;28;20463;-63
2022/09/15 07:34:14;;;;;;;4.00;1.20;;;;;;;;;;5074055;28;20440;-64
2022/09/15 07:36:41;;;;;;;2.50;1.07;;;;;;;;;;5073628;28;20974;-64
2022/09/15 07:39:08;;;;;;;6.03;1.40;;;;;;;;;;5073908;28;20482;-64
2022/09/15 07:41:36;;;;;;;2.10;1.00;;;;;;;;;;5074022;28;20467;-64
2022/09/15 07:44:07;;;;;;;2.43;1.17;;;;;;;;;;5073961;28;20498;-64
2022/09/15 07:46:34;;;;;;;2.40;0.90;;;;;;;;;;5073738;28;20558;-64
2022/09/15 07:49:02;;;;;;;2.63;0.93;;;;;;;;;;5073846;28;20467;-63
2022/09/15 07:51:29;;;;;;;3.90;1.00;;;;;;;;;;5073740;28;20531;-63
2022/09/15 07:53:57;;;;;;;4.03;0.97;;;;;;;;;;5073722;28;20828;-64
2022/09/15 07:56:24;;;;;;;2.00;0.93;;;;;;;;;;5073703;28;20790;-64
2022/09/15 07:58:51;;;;;;;2.10;0.83;;;;;;;;;;5073440;28;20440;-64
2022/09/15 08:01:21;;;;;;;1.87;0.87;;;;;;;;;;5073554;28;20839;-64
2022/09/15 08:03:48;;;;;;;2.07;0.90;;;;;;;;;;5073374;28;20460;-64
2022/09/15 08:06:16;;;;;;;2.23;0.93;;;;;;;;;;5073472;28;20464;-63
2022/09/15 08:08:43;;;;;;;2.17;0.93;;;;;;;;;;5073368;28;20483;-63
2022/09/15 08:11:13;;;;;;;2.77;1.00;;;;;;;;;;5073359;28;20803;-63
2022/09/15 08:13:40;;;;;;;2.20;1.10;;;;;;;;;;5072851;28;20440;-68
2022/09/15 08:16:08;;;;;;;2.93;0.90;;;;;;;;;;5073316;28;20478;-67
2022/09/15 08:18:37;;;;;;;1.87;0.87;;;;;;;;;;5073357;28;20521;-63
2022/09/15 08:21:08;;;;;;;2.40;1.00;;;;;;;;;;5073265;28;20435;-63
2022/09/15 08:23:35;;;;;;;6.50;1.03;;;;;;;;;;5073127;28;20493;-63
2022/09/15 08:26:03;;;;;;;2.53;0.90;;;;;;;;;;5072860;28;20479;-65
2022/09/15 08:28:30;;;;;;;2.63;1.57;;;;;;;;;;5072582;28;20566;-63
2022/09/15 08:31:00;;;;;;;4.90;1.03;;;;;;;;;;5072579;28;20930;-64
2022/09/15 08:33:28;;;;;;;2.33;1.13;;;;;;;;;;5072975;28;20898;-63
2022/09/15 08:36:00;;;;;;;2.10;0.80;;;;;;;;;;5073163;28;20463;-63
2022/09/15 08:38:27;;;;;;;2.70;1.10;;;;;;;;;;5073177;28;20443;-66
2022/09/15 08:40:58;;;;;;;2.23;0.97;;;;;;;;;;5070859;28;20494;-64
2022/09/15 08:43:27;;;;;;;3.33;0.93;;;;;;;;;;5071717;28;20929;-64
2022/09/15 08:45:57;;;;;;;2.90;1.10;;;;;;;;;;5071827;28;20793;-64
2022/09/15 08:48:26;;;;;;;2.30;0.90;;;;;;;;;;5071033;28;20480;-64
2022/09/15 08:50:56;;;;;;;3.50;1.17;;;;;;;;;;5071131;28;20472;-66
2022/09/15 08:53:28;;;;;;;3.00;1.30;;;;;;;;;;5069235;28;20447;-64
2022/09/15 08:55:56;;;;;;;2.53;1.00;;;;;;;;;;5069470;28;20510;-64
2022/09/15 08:58:24;;;;;;;3.87;1.10;;;;;;;;;;5069156;28;20535;-64
2022/09/15 09:01:03;;;;;;;2.27;1.00;;;;;;;;;;5069203;28;20451;-64
2022/09/15 09:03:40;;;;;;;2.80;1.00;;;;;;;;;;5070627;28;20440;-64
2022/09/15 09:06:12;;;;;;;1.97;0.90;;;;;;;;;;5071712;28;20479;-63
2022/09/15 09:09:05;;;;;;;2.40;0.80;;;;;;;;;;5069430;28;20523;-64
2022/09/15 09:11:52;;;;;;;3.43;1.10;;;;;;;;;;5071014;28;20452;-63
2022/09/15 09:14:25;;;;;;;2.07;0.97;;;;;;;;;;5071626;28;20793;-64
2022/09/15 09:17:02;;;;;;;3.90;1.40;;;;;;;;;;5071657;28;20841;-64
2022/09/15 09:19:45;;;;;;;3.00;1.10;;;;;;;;;;5071395;28;20447;-65
2022/09/15 09:22:14;;;;;;;2.73;0.93;;;;;;;;;;5071301;28;20526;-66
2022/09/15 09:24:44;;;;;;;2.03;1.03;;;;;;;;;;5071407;28;20489;-65
2022/09/15 09:27:13;;;;;;;3.10;1.30;;;;;;;;;;5073952;28;20479;-65
2022/09/15 09:29:43;;;;;;;2.73;1.30;;;;;;;;;;5073508;28;20458;-64
2022/09/15 09:32:17;;;;;;;2.50;1.17;;;;;;;;;;5075647;28;20436;-64
2022/09/15 09:34:46;;;;;;;3.37;1.30;;;;;;;;;;5075186;28;20439;-64
2022/09/15 09:37:15;;;;;;;2.80;1.10;;;;;;;;;;5074713;28;20548;-64
2022/09/15 09:39:45;;;;;;;2.60;1.10;;;;;;;;;;5071738;28;20525;-64
2022/09/15 09:42:16;;;;;;;3.60;2.30;;;;;;;;;;5074478;28;20531;-65
2022/09/15 09:44:44;;;;;;;4.67;1.37;;;;;;;;;;5074624;28;20442;-64
2022/09/15 09:47:12;;;;;;;2.90;1.67;;;;;;;;;;5074559;28;20866;-64
2022/09/15 09:49:41;;;;;;;2.57;1.40;;;;;;;;;;5075019;28;20760;-64
2022/09/15 09:52:09;;;;;;;4.60;1.20;;;;;;;;;;5074913;28;20496;-65
2022/09/15 09:54:36;;;;;;;2.37;1.30;;;;;;;;;;5074807;28;20530;-64
2022/09/15 09:57:28;;;;;;;2.60;1.20;;;;;;;;;;5074806;28;20444;-64
2022/09/15 09:59:55;;;;;;;7.73;1.47;;;;;;;;;;5073930;28;20447;-64
2022/09/15 10:02:23;;;;;;;2.80;1.20;;;;;;;;;;5074561;28;20926;-64
2022/09/15 10:04:52;;;;;;;2.23;1.30;;;;;;;;;;5074639;28;20868;-64
2022/09/15 10:07:20;;;;;;;3.50;1.60;;;;;;;;;;5074367;28;20480;-64
2022/09/15 10:09:52;;;;;;;4.30;1.63;;;;;;;;;;5074609;28;20440;-64
2022/09/15 10:12:21;;;;;;;3.27;1.67;;;;;;;;;;5074501;28;20443;-64
2022/09/15 10:14:52;;;;;;;3.50;1.40;;;;;;;;;;5074541;28;20451;-64
2022/09/15 10:17:20;;;;;;;4.00;1.20;;;;;;;;;;5074228;28;20458;-64
2022/09/15 10:19:49;;;;;;;5.07;1.23;;;;;;;;;;5074346;28;20467;-65
2022/09/15 10:22:24;;;;;;;2.77;1.50;;;;;;;;;;5074065;28;20938;-64
2022/09/15 10:24:52;;;;;;;2.33;1.03;;;;;;;;;;5072457;28;20848;-63
2022/09/15 10:27:20;;;;;;;2.80;1.13;;;;;;;;;;5073922;28;20917;-64
2022/09/15 10:29:48;;;;;;;6.60;1.30;;;;;;;;;;5074199;28;20443;-66
2022/09/15 10:32:33;;;;;;;2.10;0.90;;;;;;;;;;5074314;28;20527;-63
2022/09/15 10:35:02;;;;;;;3.13;1.50;;;;;;;;;;5073313;28;20446;-68
2022/09/15 10:37:32;;;;;;;2.77;1.37;;;;;;;;;;5073187;28;20472;-63
2022/09/15 10:40:01;;;;;;;2.50;1.23;;;;;;;;;;5073541;28;20945;-64
2022/09/15 10:42:36;;;;;;;3.80;1.50;;;;;;;;;;5073949;28;20444;-63
2022/09/15 10:45:10;;;;;;;3.07;1.60;;;;;;;;;;5073866;28;20468;-63
2022/09/15 10:47:44;;;;;;;7.40;1.40;;;;;;;;;;5073796;28;20845;-64
2022/09/15 10:50:16;;;;;;;2.33;1.17;;;;;;;;;;5073761;28;20441;-63
2022/09/15 10:52:49;;;;;;;2.53;1.50;;;;;;;;;;5074105;28;20435;-64
2022/09/15 10:55:22;;;;;;;2.40;1.00;;;;;;;;;;5070825;28;20451;-63
2022/09/15 10:57:59;;;;;;;4.60;1.43;;;;;;;;;;5071050;28;20472;-64
2022/09/15 11:00:29;;;;;;;2.67;1.23;;;;;;;;;;5073792;28;20452;-64
2022/09/15 11:03:14;;;;;;;3.40;1.30;;;;;;;;;;5073470;28;20439;-63
2022/09/15 11:05:48;;;;;;;3.13;1.37;;;;;;;;;;5049016;28;20432;-64
2022/09/15 11:08:26;;;;;;;3.83;1.10;;;;;;;;;;5071806;28;20542;-64
2022/09/15 11:10:57;;;;;;;2.27;1.30;;;;;;;;;;5072796;28;20478;-64
2022/09/15 11:13:27;;;;;;;2.90;1.30;;;;;;;;;;5071092;28;20506;-63
2022/09/15 11:16:00;;;;;;;2.20;1.20;;;;;;;;;;5071928;28;20445;-63
2022/09/15 11:18:43;;;;;;;4.30;1.00;;;;;;;;;;5072716;28;20475;-63
2022/09/15 11:21:20;;;;;;;3.00;1.10;;;;;;;;;;5073195;28;20435;-64
2022/09/15 11:23:49;;;;;;;2.43;1.27;;;;;;;;;;5070081;28;20461;-66
2022/09/15 11:26:20;;;;;;;2.87;0.83;;;;;;;;;;5072733;28;20842;-64
2022/09/15 11:28:49;;;;;;;2.63;1.00;;;;;;;;;;5069351;28;20535;-68
2022/09/15 11:31:20;;;;;;;2.03;0.90;;;;;;;;;;5073114;28;20790;-63
2022/09/15 11:33:50;;;;;;;2.30;1.47;;;;;;;;;;5066803;28;20539;-63
2022/09/15 11:36:21;;;;;;;4.03;0.93;;;;;;;;;;5069038;28;20467;-64
2022/09/15 11:38:51;;;;;;;2.60;1.07;;;;;;;;;;5073543;28;20443;-64
2022/09/15 11:41:20;;;;;;;2.90;1.17;;;;;;;;;;5073806;28;20535;-64
2022/09/15 11:43:51;;;;;;;2.00;0.80;;;;;;;;;;5073989;28;20476;-63
2022/09/15 11:46:24;;;;;;;2.77;0.90;;;;;;;;;;5073597;28;20474;-64
2022/09/15 11:48:54;;;;;;;2.27;0.90;;;;;;;;;;5072898;28;20804;-64
2022/09/15 11:51:26;;;;;;;4.30;1.00;;;;;;;;;;5073365;28;20435;-64
2022/09/15 11:53:56;;;;;;;3.10;1.07;;;;;;;;;;5073693;28;20432;-63
2022/09/15 11:56:25;;;;;;;2.70;0.90;;;;;;;;;;5073771;28;20468;-63
2022/09/15 11:59:02;;;;;;;2.60;1.13;;;;;;;;;;5073372;28;20529;-63
2022/09/15 12:01:32;;;;;;;6.00;1.67;;;;;;;;;;5073076;28;20436;-63
2022/09/15 12:04:01;;;;;;;4.10;1.33;;;;;;;;;;5073273;28;20534;-64
2022/09/15 12:06:32;;;;;;;2.63;1.00;;;;;;;;;;5073423;28;20782;-63
2022/09/15 12:09:01;;;;;;;2.20;0.87;;;;;;;;;;5073321;28;20562;-63
2022/09/15 12:11:29;;;;;;;2.90;1.20;;;;;;;;;;5073271;28;20519;-63
2022/09/15 12:13:58;;;;;;;1.93;0.80;;;;;;;;;;5073140;28;20458;-64
2022/09/15 12:16:26;;;;;;;6.07;1.00;;;;;;;;;;5073513;28;20459;-63
2022/09/15 12:18:56;;;;;;;2.10;1.00;;;;;;;;;;5073343;28;20533;-64
2022/09/15 12:21:34;;;;;;;1.70;0.80;;;;;;;;;;5073124;28;20463;-63
2022/09/15 12:24:08;;;;;;;2.80;1.17;;;;;;;;;;5073133;28;20472;-63
2022/09/15 12:26:36;;;;;;;4.40;1.27;;;;;;;;;;5073354;28;20894;-64
2022/09/15 12:29:04;;;;;;;2.00;1.13;;;;;;;;;;5073224;28;20562;-63
2022/09/15 12:31:38;;;;;;;3.93;1.20;;;;;;;;;;5073280;28;20464;-64
2022/09/15 12:34:07;;;;;;;3.03;0.80;;;;;;;;;;5073093;28;20444;-64
2022/09/15 12:36:43;;;;;;;2.53;1.03;;;;;;;;;;5072760;28;20463;-63
2022/09/15 12:39:22;;;;;;;2.20;1.20;;;;;;;;;;5072910;28;20863;-64
2022/09/15 12:41:50;;;;;;;1.93;0.73;;;;;;;;;;5072665;28;20523;-65
2022/09/15 12:44:22;;;;;;;3.10;1.07;;;;;;;;;;5073067;28;20471;-65
2022/09/15 12:46:51;;;;;;;2.30;0.70;;;;;;;;;;5072888;28;20440;-64
2022/09/15 12:49:23;;;;;;;1.90;0.70;;;;;;;;;;5072912;28;20483;-64
2022/09/15 12:51:51;;;;;;;3.50;0.60;;;;;;;;;;5072763;28;20523;-64
2022/09/15 12:54:22;;;;;;;1.97;0.97;;;;;;;;;;5072639;28;20527;-65
2022/09/15 12:56:52;;;;;;;3.40;0.83;;;;;;;;;;5073057;28;20523;-64
2022/09/15 12:59:24;;;;;;;2.67;0.80;;;;;;;;;;5072889;28;20464;-64
2022/09/15 13:01:51;;;;;;;2.20;0.70;;;;;;;;;;5076796;28;20512;-65
2022/09/15 13:04:44;;;;;;;3.23;0.80;;;;;;;;;;5077252;28;20493;-65
2022/09/15 13:07:38;;;;;;;1.90;0.80;;;;;;;;;;5077034;28;20432;-64
2022/09/15 13:10:27;;;;;;;1.80;0.70;;;;;;;;;;5076723;28;20518;-64
2022/09/15 13:12:58;;;;;;;4.50;1.00;;;;;;;;;;5076364;28;20883;-64
2022/09/15 13:15:26;;;;;;;2.53;1.00;;;;;;;;;;5076671;28;20490;-64
2022/09/15 13:17:54;;;;;;;2.57;1.03;;;;;;;;;;5076876;28;20440;-65
2022/09/15 13:20:24;;;;;;;3.03;1.00;;;;;;;;;;5076744;28;20479;-64
2022/09/15 13:22:55;;;;;;;2.17;0.97;;;;;;;;;;5076600;28;20436;-64
2022/09/15 13:25:24;;;;;;;2.00;0.70;;;;;;;;;;5076342;28;20449;-64
2022/09/15 13:27:54;;;;;;;3.33;0.80;;;;;;;;;;5076521;28;20524;-64
2022/09/15 13:30:31;;;;;;;2.30;1.10;;;;;;;;;;5076565;28;20581;-64
2022/09/15 13:33:01;;;;;;;3.00;1.10;;;;;;;;;;5076194;28;20439;-63
2022/09/15 13:35:47;;;;;;;2.73;1.00;;;;;;;;;;5076116;28;20472;-64
2022/09/15 13:38:24;;;;;;;1.77;0.70;;;;;;;;;;5075616;28;20493;-64
2022/09/15 13:41:09;;;;;;;1.97;0.80;;;;;;;;;;5076212;28;20471;-64
2022/09/15 13:43:45;;;;;;;2.93;0.80;;;;;;;;;;5075792;28;20475;-63
2022/09/15 13:46:16;;;;;;;3.73;1.17;;;;;;;;;;5076269;28;20515;-64
2022/09/15 13:48:49;;;;;;;2.20;0.83;;;;;;;;;;5075980;28;21073;-63
2022/09/15 13:51:19;;;;;;;2.00;0.90;;;;;;;;;;5076228;28;20474;-64
2022/09/15 13:53:49;;;;;;;1.93;0.80;;;;;;;;;;5076063;28;20436;-64
2022/09/15 13:56:20;;;;;;;2.60;1.20;;;;;;;;;;5076161;28;20432;-63
2022/09/15 13:58:48;;;;;;;3.23;1.33;;;;;;;;;;5075983;28;20464;-63
2022/09/15 14:01:16;;;;;;;3.10;1.13;;;;;;;;;;5075960;28;20475;-64
2022/09/15 14:03:46;;;;;;;2.43;1.30;;;;;;;;;;5075485;28;20952;-63
2022/09/15 14:06:14;;;;;;;4.73;1.10;;;;;;;;;;5075500;28;20471;-63
2022/09/15 14:08:43;;;;;;;3.90;2.97;;;;;;;;;;5075572;28;20479;-64
2022/09/15 14:11:11;;;;;;;7.20;2.30;;;;;;;;;;5075103;28;20835;-63
2022/09/15 14:13:42;;;;;;;2.83;1.00;;;;;;;;;;5075248;28;20609;-63
2022/09/15 14:16:22;;;;;;;2.27;0.70;;;;;;;;;;5075812;28;20475;-63
2022/09/15 14:18:50;;;;;;;2.23;1.00;;;;;;;;;;5075812;28;20451;-64
2022/09/15 14:21:18;;;;;;;2.53;1.10;;;;;;;;;;5075623;28;20799;-63
2022/09/15 14:23:47;;;;;;;3.00;1.07;;;;;;;;;;5075454;28;20443;-63
2022/09/15 14:26:14;;;;;;;6.63;1.00;;;;;;;;;;5075594;28;20440;-63
2022/09/15 14:28:42;;;;;;;2.43;0.87;;;;;;;;;;5075313;28;20519;-63
2022/09/15 14:31:10;;;;;;;2.13;1.07;;;;;;;;;;5075558;28;20444;-63
2022/09/15 14:33:43;;;;;;;3.73;0.90;;;;;;;;;;5075347;28;20483;-63
2022/09/15 14:36:14;;;;;;;2.20;1.07;;;;;;;;;;5074782;28;20879;-64
2022/09/15 14:38:42;;;;;;;11.73;2.30;;;;;;;;;;5074696;28;20466;-64
2022/09/15 14:41:18;;;;;;;3.20;1.47;;;;;;;;;;5075243;28;20528;-63
2022/09/15 14:43:46;;;;;;;5.40;2.73;;;;;;;;;;5075158;28;20818;-63
2022/09/15 14:46:14;;;;;;;3.00;1.13;;;;;;;;;;5075187;28;20813;-63
2022/09/15 14:48:42;;;;;;;6.10;4.23;;;;;;;;;;5074770;28;20436;-64
2022/09/15 14:51:12;;;;;;;5.20;2.90;;;;;;;;;;5074800;28;20472;-63
2022/09/15 14:53:41;;;;;;;2.40;1.00;;;;;;;;;;5074804;28;20527;-63
2022/09/15 14:56:11;;;;;;;2.30;0.90;;;;;;;;;;5074947;28;20491;-63
2022/09/15 14:58:41;;;;;;;3.07;1.30;;;;;;;;;;5074549;28;20935;-63
2022/09/15 15:01:12;;;;;;;3.50;1.10;;;;;;;;;;5073332;28;20440;-64